Time;durP1;ratioP1;P1;durP2;ratioP2;P2;SDS_P1;SDS_P2;PMS_P1;PMS_P2;Temp;Humidity;BMP_temperature;BMP_pressure;BME280_temperature;BME280_humidity;BME280_pressure;Samples;Min_cycle;Max_cycle;Signal;HPM_P1;HPM_P2
2023/06/05 00:00:43;;;;;;;8.57;2.93;;;;;;;18.26;58.78;101736.28;5018647;28;20388;-82
2023/06/05 00:03:09;;;;;;;7.43;2.80;;;;;;;18.25;58.59;101735.44;5016450;28;20372;-81
2023/06/05 00:05:36;;;;;;;7.87;3.10;;;;;;;18.31;58.54;101731.16;5015968;28;20383;-81
2023/06/05 00:08:01;;;;;;;8.45;3.10;;;;;;;18.32;58.34;101727.44;5014184;28;20372;-82
2023/06/05 00:10:27;;;;;;;9.02;2.88;;;;;;;18.32;58.41;101730.13;5013604;28;20403;-81
2023/06/05 00:12:53;;;;;;;8.95;2.72;;;;;;;18.40;58.19;101731.81;4993516;28;20403;-81
2023/06/05 00:15:18;;;;;;;8.60;3.47;;;;;;;18.51;59.02;101734.81;5005047;28;20404;-79
2023/06/05 00:17:45;;;;;;;8.95;2.72;;;;;;;18.81;61.46;101726.50;5004904;28;20419;-81
2023/06/05 00:20:11;;;;;;;8.25;2.90;;;;;;;18.72;59.03;101720.44;5004043;28;20429;-79
2023/06/05 00:22:37;;;;;;;11.57;2.95;;;;;;;18.62;58.37;101721.81;5004492;28;20410;-80
2023/06/05 00:25:03;;;;;;;6.32;2.72;;;;;;;18.55;58.36;101719.13;5006168;28;20470;-80
2023/06/05 00:27:28;;;;;;;9.27;2.90;;;;;;;18.50;58.42;101724.25;5003741;28;20403;-80
2023/06/05 00:29:54;;;;;;;8.10;2.90;;;;;;;18.41;58.66;101712.84;5005458;28;20411;-80
2023/06/05 00:32:19;;;;;;;9.60;3.20;;;;;;;18.43;58.64;101716.16;5006235;28;20517;-81
2023/06/05 00:34:46;;;;;;;10.00;2.95;;;;;;;18.48;58.45;101708.34;5004880;28;20411;-80
2023/06/05 00:37:13;;;;;;;10.70;3.00;;;;;;;18.37;58.44;101708.91;5004649;28;20404;-81
2023/06/05 00:39:39;;;;;;;8.88;3.03;;;;;;;18.35;58.58;101713.66;5005216;28;20414;-81
2023/06/05 00:42:06;;;;;;;8.23;2.80;;;;;;;18.44;58.59;101704.41;4993991;28;20399;-81
2023/06/05 00:44:31;;;;;;;10.75;3.22;;;;;;;18.50;58.38;101706.28;5012531;28;20391;-81
2023/06/05 00:46:57;;;;;;;10.40;3.33;;;;;;;18.53;58.25;101702.38;5012191;28;20740;-81
2023/06/05 00:49:23;;;;;;;11.02;3.20;;;;;;;18.57;58.16;101705.50;5012475;28;20395;-80
2023/06/05 00:51:50;;;;;;;12.35;3.63;;;;;;;18.49;58.46;101709.16;5013602;28;20372;-81
2023/06/05 00:54:15;;;;;;;10.82;3.47;;;;;;;18.45;58.42;101703.34;4997276;28;20379;-81
2023/06/05 00:56:42;;;;;;;10.13;3.37;;;;;;;18.50;58.24;101698.22;5013859;28;20416;-80
2023/06/05 00:59:08;;;;;;;10.38;3.38;;;;;;;18.52;58.30;101701.53;5014307;28;20411;-81
2023/06/05 01:01:34;;;;;;;10.32;3.20;;;;;;;18.58;58.11;101699.91;4996936;28;20883;-81
2023/06/05 01:04:01;;;;;;;12.35;3.58;;;;;;;18.53;58.17;101691.66;5014080;28;20399;-81
2023/06/05 01:06:28;;;;;;;11.90;3.05;;;;;;;18.46;58.63;101691.59;5013061;28;20955;-81
2023/06/05 01:08:56;;;;;;;12.13;3.40;;;;;;;18.49;58.65;101690.38;5014223;28;20467;-81
2023/06/05 01:11:35;;;;;;;12.35;3.38;;;;;;;18.54;58.59;101679.84;5013900;28;20462;-81
2023/06/05 01:14:27;;;;;;;9.48;3.10;;;;;;;18.54;58.65;101677.19;4996478;28;20427;-80
2023/06/05 01:16:54;;;;;;;10.18;3.28;;;;;;;18.36;59.21;101679.56;5013976;28;20384;-80
2023/06/05 01:19:21;;;;;;;7.65;3.00;;;;;;;18.32;59.34;101682.63;5014080;28;20416;-80
2023/06/05 01:21:49;;;;;;;8.90;3.35;;;;;;;18.30;59.48;101687.38;5014219;28;20451;-79
2023/06/05 01:24:15;;;;;;;11.37;3.30;;;;;;;18.33;59.48;101680.81;5013859;28;20463;-80
2023/06/05 01:27:30;;;;;;;11.57;4.20;;;;;;;18.40;59.20;101683.50;5013972;28;20380;-80
2023/06/05 01:30:15;;;;;;;11.90;4.95;;;;;;;18.31;59.39;101680.16;4988293;28;20388;-81
2023/06/05 01:32:55;;;;;;;9.68;4.47;;;;;;;18.25;59.53;101680.94;5018212;28;20392;-80
2023/06/05 01:35:27;;;;;;;10.90;3.90;;;;;;;18.21;59.71;101677.81;5015688;28;20762;-80
2023/06/05 01:37:54;;;;;;;11.60;4.13;;;;;;;18.19;59.69;101690.63;5026436;28;20431;-81
2023/06/05 01:40:23;;;;;;;9.30;4.03;;;;;;;18.17;59.92;101694.50;5013008;28;20471;-80
2023/06/05 01:42:52;;;;;;;11.90;4.47;;;;;;;18.15;59.95;101687.50;5013395;28;20392;-80
2023/06/05 01:45:18;;;;;;;14.73;4.50;;;;;;;18.12;60.13;101689.75;5013013;28;20471;-80
2023/06/05 01:47:48;;;;;;;9.95;3.70;;;;;;;18.19;59.91;101698.66;5012944;28;20454;-80
2023/06/05 01:50:14;;;;;;;13.88;4.28;;;;;;;18.20;59.94;101704.84;5017797;28;20391;-80
2023/06/05 01:52:41;;;;;;;11.57;4.20;;;;;;;18.10;60.23;101707.91;5016168;28;20396;-80
2023/06/05 01:55:15;;;;;;;9.80;3.80;;;;;;;18.02;60.70;101705.34;5015911;28;20422;-80
2023/06/05 01:57:44;;;;;;;14.87;4.50;;;;;;;17.99;60.80;101695.84;5015966;28;20424;-81
2023/06/05 02:00:15;;;;;;;13.55;4.35;;;;;;;18.14;60.51;101693.88;5016194;28;20455;-80
2023/06/05 02:02:45;;;;;;;13.15;4.30;;;;;;;18.15;60.27;101692.03;5016351;28;20392;-80
2023/06/05 02:05:12;;;;;;;11.45;4.50;;;;;;;18.20;60.47;101688.75;5015348;28;20462;-81
2023/06/05 02:07:39;;;;;;;12.23;4.03;;;;;;;18.23;60.20;101694.56;5014594;28;20758;-81
2023/06/05 02:10:09;;;;;;;10.13;4.32;;;;;;;18.25;60.20;101692.50;4997596;28;21084;-80
2023/06/05 02:12:37;;;;;;;10.77;4.67;;;;;;;18.12;60.51;101677.16;4998025;28;20396;-81
2023/06/05 02:15:03;;;;;;;12.80;4.40;;;;;;;18.06;60.93;101679.78;5010713;28;20403;-81
2023/06/05 02:17:29;;;;;;;12.18;4.65;;;;;;;18.02;61.11;101676.66;5014894;28;20392;-80
2023/06/05 02:19:55;;;;;;;13.07;4.32;;;;;;;18.03;61.29;101674.81;5015584;28;20450;-80
2023/06/05 02:22:23;;;;;;;12.32;4.10;;;;;;;18.12;60.89;101677.16;5014625;28;20761;-79
2023/06/05 02:24:49;;;;;;;12.18;3.88;;;;;;;18.07;60.96;101666.16;5015530;28;20384;-79
2023/06/05 02:27:16;;;;;;;14.77;4.28;;;;;;;18.10;60.91;101667.66;4997340;28;20702;-80
2023/06/05 02:29:41;;;;;;;12.25;3.80;;;;;;;18.14;60.61;101671.59;5015113;28;20388;-80
2023/06/05 02:32:06;;;;;;;13.20;3.95;;;;;;;18.10;60.73;101673.03;5015321;28;20384;-81
2023/06/05 02:34:32;;;;;;;11.87;4.00;;;;;;;18.02;61.24;101673.16;5015355;28;20387;-81
2023/06/05 02:36:59;;;;;;;10.60;3.90;;;;;;;17.95;61.56;101678.47;5015198;28;20946;-81
2023/06/05 02:39:25;;;;;;;10.50;4.00;;;;;;;17.86;61.97;101682.31;5014514;28;20426;-80
2023/06/05 02:41:51;;;;;;;12.18;4.28;;;;;;;17.76;62.19;101671.91;4997605;28;20395;-81
2023/06/05 02:44:17;;;;;;;12.88;4.80;;;;;;;17.73;62.38;101681.16;5015030;28;20454;-80
2023/06/05 02:46:42;;;;;;;13.07;4.80;;;;;;;17.58;63.15;101683.91;5014007;28;20772;-80
2023/06/05 02:49:08;;;;;;;12.53;4.70;;;;;;;17.55;62.75;101684.28;5015643;28;20376;-80
2023/06/05 02:51:33;;;;;;;14.98;4.13;;;;;;;17.69;62.59;101682.56;5015391;28;20450;-81
2023/06/05 02:53:59;;;;;;;16.13;4.20;;;;;;;17.71;62.65;101688.56;5015279;28;20928;-80
2023/06/05 02:56:26;;;;;;;12.20;3.70;;;;;;;17.69;62.64;101682.56;5015059;28;20415;-80
2023/06/05 02:58:53;;;;;;;12.05;4.55;;;;;;;17.68;62.74;101688.13;5015182;28;20549;-81
2023/06/05 03:01:18;;;;;;;9.80;3.47;;;;;;;17.63;62.77;101685.19;5015471;28;20388;-80
2023/06/05 03:03:44;;;;;;;8.37;3.43;;;;;;;17.62;63.04;101703.13;5012517;28;20372;-80
2023/06/05 03:06:11;;;;;;;14.27;5.07;;;;;;;17.63;63.06;101679.81;5012875;28;20907;-81
2023/06/05 03:08:37;;;;;;;8.32;3.70;;;;;;;17.76;62.65;101674.59;4995872;28;20384;-81
2023/06/05 03:11:04;;;;;;;12.40;4.18;;;;;;;17.85;62.26;101684.19;5012941;28;20388;-80
2023/06/05 03:13:32;;;;;;;7.70;3.60;;;;;;;17.75;62.42;101692.53;5013000;28;20376;-81
2023/06/05 03:16:01;;;;;;;10.18;3.00;;;;;;;17.60;63.07;101690.97;4998092;28;20899;-81
2023/06/05 03:18:29;;;;;;;10.67;3.43;;;;;;;17.60;62.96;101690.97;4995370;28;20508;-81
2023/06/05 03:20:56;;;;;;;7.60;3.28;;;;;;;17.64;63.02;101701.09;5012461;28;20947;-81
2023/06/05 03:23:27;;;;;;;11.03;3.47;;;;;;;17.55;63.09;101694.19;5015677;28;21097;-81
2023/06/05 03:25:53;;;;;;;7.68;3.15;;;;;;;17.51;63.28;101696.44;5012426;28;20392;-80
2023/06/05 03:28:20;;;;;;;13.68;3.40;;;;;;;17.58;63.28;101705.38;5012893;28;20464;-78
2023/06/05 03:30:46;;;;;;;15.75;3.65;;;;;;;17.63;62.96;101698.59;4995648;28;20876;-81
2023/06/05 03:33:13;;;;;;;13.43;3.53;;;;;;;17.71;62.89;101693.13;5012882;28;20840;-80
2023/06/05 03:35:40;;;;;;;11.88;3.40;;;;;;;17.76;62.63;101672.72;5013964;28;20396;-81
2023/06/05 03:38:05;;;;;;;9.90;3.15;;;;;;;17.94;62.19;101680.31;5014851;28;20408;-81
2023/06/05 03:40:31;;;;;;;10.23;3.30;;;;;;;18.03;61.77;101674.81;5005705;28;20380;-82
2023/06/05 03:42:56;;;;;;;8.93;3.17;;;;;;;17.97;61.82;101673.75;5016581;28;20749;-82
2023/06/05 03:45:22;;;;;;;11.27;3.60;;;;;;;17.96;61.88;101680.13;4995400;28;20388;-80
2023/06/05 03:47:48;;;;;;;11.03;3.60;;;;;;;17.98;61.81;101675.41;5016909;28;20760;-80
2023/06/05 03:50:17;;;;;;;8.70;3.35;;;;;;;18.07;61.63;101686.81;5024959;28;20470;-80
2023/06/05 03:52:43;;;;;;;11.27;3.90;;;;;;;17.94;61.63;101682.19;5018634;28;20477;-81
2023/06/05 03:55:09;;;;;;;8.27;3.40;;;;;;;17.95;61.82;101671.28;5002633;28;20432;-81
2023/06/05 03:57:37;;;;;;;11.43;3.92;;;;;;;18.05;61.74;101683.50;5021915;28;20399;-81
2023/06/05 04:00:10;;;;;;;10.13;3.60;;;;;;;17.98;61.63;101674.59;5021219;28;21013;-79
2023/06/05 04:02:36;;;;;;;9.70;3.80;;;;;;;18.03;61.64;101674.81;5020420;28;20398;-78
2023/06/05 04:05:03;;;;;;;7.95;3.58;;;;;;;18.01;61.50;101672.34;4987672;28;20451;-80
2023/06/05 04:07:29;;;;;;;10.38;3.75;;;;;;;18.00;61.43;101676.03;4977476;28;20392;-80
2023/06/05 04:09:55;;;;;;;11.80;3.70;;;;;;;18.10;61.40;101684.56;5010796;28;20652;-81
2023/06/05 04:12:20;;;;;;;10.00;3.55;;;;;;;18.06;61.63;101685.16;5011078;28;20848;-81
2023/06/05 04:14:46;;;;;;;6.80;2.90;;;;;;;18.21;61.64;101690.44;5007259;28;20389;-79
2023/06/05 04:17:13;;;;;;;12.32;3.40;;;;;;;18.34;61.17;101679.75;5006932;28;20382;-80
2023/06/05 04:19:39;;;;;;;8.52;3.40;;;;;;;18.47;60.47;101676.31;5020466;28;20895;-81
2023/06/05 04:22:05;;;;;;;8.73;3.20;;;;;;;18.46;60.47;101678.19;4992487;28;20755;-80
2023/06/05 04:24:31;;;;;;;10.82;3.03;;;;;;;18.51;60.29;101680.25;5005590;28;20396;-79
2023/06/05 04:26:59;;;;;;;8.93;3.40;;;;;;;18.52;59.97;101672.00;5012533;28;20475;-80
2023/06/05 04:29:24;;;;;;;9.73;3.40;;;;;;;18.57;60.15;101667.91;5031461;28;20404;-82
2023/06/05 04:31:50;;;;;;;10.30;4.17;;;;;;;18.65;59.79;101665.03;5027873;28;20459;-82
2023/06/05 04:34:17;;;;;;;10.45;3.60;;;;;;;18.62;59.71;101662.75;5024282;28;20388;-82
2023/06/05 04:36:43;;;;;;;8.88;3.60;;;;;;;18.64;59.94;101666.09;5014984;28;20459;-80
2023/06/05 04:39:16;;;;;;;8.18;3.47;;;;;;;18.73;59.83;101673.75;5018342;28;20413;-80
2023/06/05 04:41:44;;;;;;;8.38;3.60;;;;;;;18.83;59.83;101668.03;5010342;28;20404;-81
2023/06/05 04:44:16;;;;;;;10.65;4.85;;;;;;;19.05;59.49;101673.25;5026837;28;20415;-81
2023/06/05 04:46:43;;;;;;;13.20;4.70;;;;;;;19.00;59.53;101668.50;4987198;28;20989;-82
2023/06/05 04:49:10;;;;;;;9.97;4.10;;;;;;;19.02;59.42;101666.44;4997425;28;20388;-81
2023/06/05 04:51:38;;;;;;;12.90;4.10;;;;;;;19.06;59.52;101666.88;5011900;28;20390;-80
2023/06/05 04:54:05;;;;;;;11.43;3.92;;;;;;;19.27;59.15;101673.94;4995357;28;20388;-81
2023/06/05 04:56:32;;;;;;;9.15;4.32;;;;;;;19.26;59.27;101674.97;5014628;28;20825;-81
2023/06/05 04:58:59;;;;;;;11.65;4.40;;;;;;;19.37;58.79;101668.16;5013586;28;20407;-82
2023/06/05 05:01:27;;;;;;;7.85;3.15;;;;;;;19.43;58.39;101675.41;5015761;28;20384;-81
2023/06/05 05:03:53;;;;;;;8.38;3.53;;;;;;;19.49;57.93;101678.09;5028494;28;20538;-82
2023/06/05 05:06:19;;;;;;;9.60;3.67;;;;;;;19.57;57.59;101670.84;5013749;28;20844;-80
2023/06/05 05:08:46;;;;;;;9.57;4.03;;;;;;;19.70;57.75;101681.63;5018793;28;20380;-81
2023/06/05 05:11:12;;;;;;;12.50;3.97;;;;;;;19.89;57.06;101673.78;5026568;28;20848;-82
2023/06/05 05:13:38;;;;;;;9.90;3.83;;;;;;;19.98;56.87;101670.66;5012948;28;20395;-80
2023/06/05 05:16:04;;;;;;;10.50;3.75;;;;;;;20.00;56.52;101668.59;5015923;28;20376;-81
2023/06/05 05:18:30;;;;;;;16.97;4.70;;;;;;;20.09;56.67;101666.50;4999981;28;20483;-82
2023/06/05 05:20:55;;;;;;;12.10;4.07;;;;;;;20.17;56.57;101669.00;5011984;28;20450;-81
2023/06/05 05:23:21;;;;;;;13.93;4.10;;;;;;;20.10;56.44;101667.34;5011292;28;20430;-81
2023/06/05 05:25:47;;;;;;;12.50;4.50;;;;;;;20.10;56.31;101668.16;5011346;28;20375;-81
2023/06/05 05:28:13;;;;;;;9.63;3.70;;;;;;;20.24;55.73;101671.66;5018819;28;20716;-80
2023/06/05 05:30:38;;;;;;;10.65;3.92;;;;;;;20.33;55.11;101664.16;5012981;28;20712;-83
2023/06/05 05:33:04;;;;;;;9.10;3.70;;;;;;;20.46;54.77;101663.31;5015582;28;20399;-79
2023/06/05 05:35:30;;;;;;;7.10;3.47;;;;;;;20.55;54.79;101667.44;5022131;28;20372;-81
2023/06/05 05:37:56;;;;;;;11.18;3.60;;;;;;;20.61;54.81;101659.34;5000496;28;20831;-80
2023/06/05 05:40:22;;;;;;;9.38;3.53;;;;;;;20.70;54.88;101661.78;5016360;28;20388;-81
2023/06/05 05:42:49;;;;;;;7.03;3.63;;;;;;;20.75;54.67;101662.81;5015994;28;20386;-81
2023/06/05 05:45:15;;;;;;;9.27;3.50;;;;;;;20.79;54.57;101657.81;5014801;28;20384;-81
2023/06/05 05:47:40;;;;;;;7.43;2.90;;;;;;;20.81;53.94;101653.03;4994473;28;20384;-79
2023/06/05 05:50:06;;;;;;;8.55;2.92;;;;;;;20.81;53.02;101653.03;5004259;28;20451;-77
2023/06/05 05:52:32;;;;;;;6.18;2.63;;;;;;;20.83;52.56;101647.44;4996060;28;20386;-79
2023/06/05 05:54:59;;;;;;;7.80;2.93;;;;;;;20.89;51.72;101655.50;5010037;28;20476;-80
2023/06/05 05:57:25;;;;;;;7.07;2.90;;;;;;;20.97;51.47;101649.00;5007516;28;20841;-79
2023/06/05 05:59:51;;;;;;;10.43;3.10;;;;;;;21.13;51.40;101648.50;5015433;28;20442;-80
2023/06/05 06:02:17;;;;;;;10.25;3.38;;;;;;;21.39;51.42;101646.63;5016728;28;20698;-79
2023/06/05 06:04:46;;;;;;;9.70;3.45;;;;;;;21.47;51.14;101645.59;5000799;28;20858;-80
2023/06/05 06:07:11;;;;;;;8.55;2.92;;;;;;;21.72;51.03;101648.28;5010015;28;20446;-80
2023/06/05 06:09:38;;;;;;;7.55;3.25;;;;;;;21.53;50.74;101645.53;4997991;28;20381;-80
2023/06/05 06:12:05;;;;;;;5.75;3.10;;;;;;;21.49;51.10;101649.72;5016438;28;20376;-80
2023/06/05 06:14:34;;;;;;;11.30;3.40;;;;;;;21.65;50.80;101655.63;5025312;28;20520;-80
2023/06/05 06:17:01;;;;;;;5.80;3.15;;;;;;;21.69;50.77;101656.81;5008522;28;20428;-80
2023/06/05 06:19:27;;;;;;;9.18;3.80;;;;;;;21.80;50.87;101666.06;4994558;28;20750;-78
2023/06/05 06:21:53;;;;;;;6.45;3.08;;;;;;;21.98;50.25;101651.78;5010812;28;20384;-79
2023/06/05 06:24:22;;;;;;;8.18;3.80;;;;;;;22.15;49.45;101652.84;5016244;28;20379;-80
2023/06/05 06:26:48;;;;;;;7.63;3.55;;;;;;;22.28;49.23;101655.44;4995443;28;20396;-85
2023/06/05 06:29:23;;;;;;;7.88;3.10;;;;;;;22.43;48.77;101655.03;5015201;28;20395;-80
2023/06/05 06:31:49;;;;;;;8.73;2.70;;;;;;;22.50;48.45;101654.97;4986330;28;20382;-79
2023/06/05 06:34:16;;;;;;;7.60;2.92;;;;;;;22.67;47.94;101658.72;5028059;28;20408;-77
2023/06/05 06:36:43;;;;;;;6.57;3.20;;;;;;;22.49;47.89;101656.00;4998314;28;20411;-79
2023/06/05 06:39:10;;;;;;;5.90;3.03;;;;;;;22.58;47.89;101654.66;5005542;28;20424;-79
2023/06/05 06:41:36;;;;;;;7.20;3.10;;;;;;;22.82;48.04;101662.88;4995755;28;20393;-78
2023/06/05 06:44:02;;;;;;;6.97;3.13;;;;;;;22.85;47.38;101660.56;4996184;28;20809;-80
2023/06/05 06:46:28;;;;;;;7.13;2.85;;;;;;;22.91;47.51;101665.03;4996494;28;20410;-79
2023/06/05 06:48:53;;;;;;;6.57;2.70;;;;;;;22.98;47.70;101670.34;4996411;28;20469;-79
2023/06/05 06:51:19;;;;;;;7.47;2.95;;;;;;;22.88;47.75;101660.06;5015609;28;20450;-79
2023/06/05 06:53:44;;;;;;;9.37;2.73;;;;;;;23.14;47.38;101659.94;5014968;28;20464;-79
2023/06/05 06:56:10;;;;;;;10.20;3.25;;;;;;;23.19;47.46;101662.78;5014966;28;20396;-79
2023/06/05 06:58:36;;;;;;;4.93;2.77;;;;;;;23.36;46.96;101658.38;5014605;28;20404;-79
2023/06/05 07:01:03;;;;;;;6.35;2.72;;;;;;;23.61;46.62;101662.78;5013971;28;20380;-78
2023/06/05 07:03:28;;;;;;;6.90;2.95;;;;;;;23.66;46.48;101666.41;5010579;28;20461;-78
2023/06/05 07:05:54;;;;;;;6.20;2.97;;;;;;;23.89;46.72;101656.66;5016271;28;20388;-79
2023/06/05 07:08:19;;;;;;;5.63;3.03;;;;;;;23.78;46.24;101663.69;5034263;28;20404;-78
2023/06/05 07:10:46;;;;;;;5.75;2.97;;;;;;;23.93;45.97;101655.16;5002686;28;20384;-80
2023/06/05 07:13:12;;;;;;;8.27;3.47;;;;;;;23.93;45.98;101662.44;5013472;28;20395;-79
2023/06/05 07:15:37;;;;;;;7.72;3.17;;;;;;;23.81;45.91;101659.75;5014240;28;20376;-78
2023/06/05 07:18:03;;;;;;;6.53;3.40;;;;;;;23.91;46.10;101651.84;5014119;28;20477;-80
2023/06/05 07:20:28;;;;;;;8.85;3.42;;;;;;;24.02;45.71;101671.84;5012831;28;20384;-81
2023/06/05 07:22:54;;;;;;;8.17;3.07;;;;;;;23.99;45.58;101669.63;5013724;28;20445;-79
2023/06/05 07:25:22;;;;;;;7.82;2.88;;;;;;;24.24;45.28;101681.03;5014462;28;20384;-80
2023/06/05 07:27:48;;;;;;;7.70;3.00;;;;;;;24.22;44.12;101677.72;5032502;28;20456;-79
2023/06/05 07:30:13;;;;;;;6.05;2.92;;;;;;;24.30;42.93;101673.81;5016863;28;20420;-79
2023/06/05 07:32:42;;;;;;;6.85;3.10;;;;;;;24.34;43.23;101669.56;4999383;28;20394;-80
2023/06/05 07:35:08;;;;;;;5.28;2.70;;;;;;;24.18;43.48;101682.00;5015404;28;20384;-81
2023/06/05 07:37:35;;;;;;;6.15;2.40;;;;;;;24.22;43.72;101674.22;5015650;28;20376;-80
2023/06/05 07:40:02;;;;;;;5.60;2.53;;;;;;;24.31;43.28;101677.34;5014948;28;20387;-80
2023/06/05 07:42:28;;;;;;;6.05;2.58;;;;;;;24.51;42.61;101683.22;5014069;28;20388;-78
2023/06/05 07:44:53;;;;;;;11.50;3.17;;;;;;;24.59;42.56;101680.13;5013592;28;20380;-81
2023/06/05 07:47:19;;;;;;;7.57;2.40;;;;;;;24.60;41.82;101684.50;5029189;28;20376;-79
2023/06/05 07:49:45;;;;;;;7.15;2.90;;;;;;;24.41;41.99;101685.69;4995847;28;20882;-80
2023/06/05 07:52:10;;;;;;;8.83;2.73;;;;;;;24.14;42.44;101694.34;5013778;28;20446;-80
2023/06/05 07:54:36;;;;;;;6.13;2.63;;;;;;;24.14;43.02;101690.81;5016299;28;20384;-79
2023/06/05 07:57:01;;;;;;;8.03;2.60;;;;;;;23.92;43.03;101691.41;5015353;28;20439;-81
2023/06/05 07:59:27;;;;;;;5.47;2.60;;;;;;;24.07;42.96;101690.09;5015371;28;20422;-80
2023/06/05 08:01:55;;;;;;;5.33;2.43;;;;;;;24.32;42.58;101684.44;5014081;28;20399;-81
2023/06/05 08:04:24;;;;;;;7.20;2.72;;;;;;;24.46;41.96;101685.00;4995037;28;20876;-79
2023/06/05 08:06:50;;;;;;;5.32;2.55;;;;;;;24.49;41.53;101679.94;5008439;28;20396;-78
2023/06/05 08:09:16;;;;;;;6.68;2.60;;;;;;;24.48;41.99;101677.44;5008334;28;20404;-79
2023/06/05 08:11:41;;;;;;;7.67;2.57;;;;;;;24.74;41.23;101678.78;5012361;28;20867;-78
2023/06/05 08:14:07;;;;;;;6.97;2.40;;;;;;;24.92;40.98;101670.50;5029532;28;20381;-81
2023/06/05 08:16:34;;;;;;;6.47;2.77;;;;;;;25.00;41.08;101678.22;5027724;28;20388;-81
2023/06/05 08:18:59;;;;;;;5.25;2.50;;;;;;;25.11;40.94;101673.81;5029437;28;20415;-81
2023/06/05 08:21:25;;;;;;;5.23;2.70;;;;;;;25.23;40.93;101684.59;5016082;28;20384;-79
2023/06/05 08:23:50;;;;;;;5.53;2.53;;;;;;;25.33;41.05;101678.56;5016112;28;20881;-79
2023/06/05 08:26:19;;;;;;;7.18;2.67;;;;;;;25.47;40.78;101685.31;5030563;28;20380;-81
2023/06/05 08:28:45;;;;;;;7.20;3.28;;;;;;;25.66;40.61;101669.59;5014945;28;20392;-79
2023/06/05 08:31:11;;;;;;;7.40;3.00;;;;;;;25.80;40.66;101674.69;5015468;28;20926;-81
2023/06/05 08:33:37;;;;;;;6.17;2.80;;;;;;;25.76;40.17;101664.31;4996498;28;20384;-77
2023/06/05 08:36:05;;;;;;;9.17;2.97;;;;;;;25.87;40.06;101665.28;5012786;28;20399;-80
2023/06/05 08:38:33;;;;;;;9.20;3.33;;;;;;;26.03;39.22;101663.63;5012984;28;20416;-79
2023/06/05 08:41:17;;;;;;;5.00;2.22;;;;;;;26.18;38.98;101654.03;5029823;28;20395;-79
2023/06/05 08:43:44;;;;;;;5.78;2.70;;;;;;;26.21;39.59;101651.66;5013804;28;20403;-79
2023/06/05 08:46:11;;;;;;;7.72;2.53;;;;;;;26.22;38.65;101653.31;5013886;28;20388;-80
2023/06/05 08:48:45;;;;;;;3.80;2.33;;;;;;;26.32;38.67;101656.13;5014081;28;20434;-79
2023/06/05 08:51:12;;;;;;;6.55;2.53;;;;;;;26.39;38.31;101655.13;5014118;28;20398;-79
2023/06/05 08:53:39;;;;;;;5.07;2.55;;;;;;;26.55;38.71;101653.41;4997383;28;20479;-81
2023/06/05 08:56:06;;;;;;;8.90;2.60;;;;;;;26.69;38.18;101643.81;4997084;28;20427;-83
2023/06/05 08:58:32;;;;;;;6.95;2.60;;;;;;;26.80;38.37;101658.34;5012841;28;20470;-78
2023/06/05 09:00:59;;;;;;;5.45;2.70;;;;;;;26.76;38.08;101649.88;5012894;28;20416;-77
2023/06/05 09:03:25;;;;;;;6.13;2.60;;;;;;;26.83;37.25;101650.50;5018457;28;20438;-79
2023/06/05 09:05:52;;;;;;;5.07;2.30;;;;;;;26.85;36.40;101644.81;5018960;28;20384;-80
2023/06/05 09:08:30;;;;;;;7.03;2.30;;;;;;;26.55;36.94;101637.09;4999974;28;20396;-79
2023/06/05 09:11:27;;;;;;;5.10;2.40;;;;;;;26.51;36.83;101640.31;5018106;28;20392;-80
2023/06/05 09:13:54;;;;;;;7.10;2.53;;;;;;;26.33;37.42;101649.63;5017619;28;20475;-78
2023/06/05 09:16:21;;;;;;;6.85;2.50;;;;;;;26.74;37.49;101643.03;5017263;28;20399;-80
2023/06/05 09:18:57;;;;;;;9.65;2.70;;;;;;;26.83;36.80;101649.66;5017747;28;20411;-79
2023/06/05 09:21:34;;;;;;;5.23;2.20;;;;;;;26.89;36.49;101646.75;5021293;28;20383;-81
2023/06/05 09:24:13;;;;;;;6.05;2.72;;;;;;;27.12;35.75;101652.09;5017651;28;20514;-80
2023/06/05 09:26:48;;;;;;;9.40;2.70;;;;;;;26.95;36.52;101647.59;5011678;28;20492;-79
2023/06/05 09:29:19;;;;;;;5.85;2.30;;;;;;;26.78;36.99;101652.34;4999992;28;20384;-78
2023/06/05 09:31:44;;;;;;;6.90;2.60;;;;;;;27.01;36.16;101643.88;5019250;28;20402;-78
2023/06/05 09:34:10;;;;;;;7.73;2.37;;;;;;;27.00;36.27;101644.13;5014047;28;20865;-79
2023/06/05 09:36:45;;;;;;;6.63;2.00;;;;;;;26.95;36.72;101644.88;4989590;28;20424;-81
2023/06/05 09:39:16;;;;;;;6.13;2.38;;;;;;;26.99;36.77;101639.75;5015669;28;20788;-79
2023/06/05 09:41:44;;;;;;;4.82;2.20;;;;;;;27.04;36.97;101647.97;4999989;28;20741;-78
2023/06/05 09:44:10;;;;;;;5.80;2.47;;;;;;;27.00;36.94;101642.22;5000338;28;20392;-79
2023/06/05 09:46:51;;;;;;;4.57;2.15;;;;;;;26.84;37.33;101637.72;5018516;28;20393;-79
2023/06/05 09:49:16;;;;;;;5.00;2.45;;;;;;;26.88;37.79;101636.09;5017694;28;20462;-78
2023/06/05 09:51:46;;;;;;;4.47;2.30;;;;;;;26.81;38.07;101641.78;5017067;28;20391;-78
2023/06/05 09:54:12;;;;;;;5.55;2.28;;;;;;;26.68;38.29;101637.53;4998830;28;20399;-80
2023/06/05 09:56:41;;;;;;;5.00;2.40;;;;;;;26.70;38.58;101637.28;5016684;28;20954;-79
2023/06/05 09:59:08;;;;;;;4.93;2.17;;;;;;;26.84;38.41;101621.38;5017493;28;20523;-78
2023/06/05 10:01:36;;;;;;;10.55;2.80;;;;;;;26.80;37.78;101620.28;5016871;28;20427;-78
2023/06/05 10:04:07;;;;;;;6.35;2.47;;;;;;;26.84;38.62;101622.19;5017030;28;20453;-80
2023/06/05 10:06:33;;;;;;;7.35;2.30;;;;;;;26.76;38.60;101619.97;5017418;28;20463;-80
2023/06/05 10:09:00;;;;;;;3.53;2.42;;;;;;;26.42;38.46;101616.56;5015380;28;20781;-79
2023/06/05 10:11:26;;;;;;;10.15;2.50;;;;;;;26.31;39.10;101610.19;5015256;28;20396;-78
2023/06/05 10:13:59;;;;;;;3.53;2.10;;;;;;;26.48;38.65;101610.09;5016071;28;20468;-78
2023/06/05 10:16:26;;;;;;;5.10;2.55;;;;;;;26.62;38.80;101613.28;5017161;28;20419;-77
2023/06/05 10:18:51;;;;;;;3.03;2.10;;;;;;;26.79;38.13;101613.16;5017429;28;20412;-79
2023/06/05 10:21:18;;;;;;;9.70;2.90;;;;;;;26.84;38.57;101611.31;5016829;28;20491;-78
2023/06/05 10:24:09;;;;;;;4.47;2.33;;;;;;;26.88;37.54;101598.88;5017091;28;20434;-80
2023/06/05 10:26:53;;;;;;;4.18;2.28;;;;;;;26.96;38.21;101610.34;5018047;28;20403;-82
2023/06/05 10:29:33;;;;;;;4.22;2.30;;;;;;;26.77;37.00;101599.00;5019003;28;20546;-78
2023/06/05 10:32:03;;;;;;;3.03;1.80;;;;;;;26.67;37.66;101597.03;5017388;28;20449;-79
2023/06/05 10:35:06;;;;;;;2.70;1.98;;;;;;;26.62;37.36;101600.50;5016579;28;20399;-78
2023/06/05 10:37:56;;;;;;;5.90;1.92;;;;;;;26.66;36.67;101592.66;5015641;28;20365;-78
2023/06/05 10:40:23;;;;;;;4.68;2.20;;;;;;;26.78;37.19;101596.03;5015854;28;20412;-79
2023/06/05 10:42:49;;;;;;;4.33;2.80;;;;;;;26.83;37.30;101587.94;5017934;28;20412;-80
2023/06/05 10:45:31;;;;;;;6.55;2.58;;;;;;;26.62;37.14;101586.91;5016673;28;20729;-78
2023/06/05 10:47:56;;;;;;;6.90;2.30;;;;;;;26.54;37.60;101591.94;4999140;28;20428;-80
2023/06/05 10:50:24;;;;;;;6.07;2.50;;;;;;;26.55;37.97;101582.72;5016087;28;20844;-80
2023/06/05 10:52:51;;;;;;;3.55;1.95;;;;;;;26.40;38.17;101588.78;5016342;28;20431;-82
2023/06/05 10:55:17;;;;;;;3.15;1.90;;;;;;;26.52;38.04;101584.03;4999512;28;20372;-78
2023/06/05 10:58:01;;;;;;;4.90;2.13;;;;;;;26.13;39.03;101587.69;5017413;28;20403;-80
2023/06/05 11:00:27;;;;;;;3.85;2.10;;;;;;;26.10;39.01;101592.81;5030321;28;20727;-81
2023/06/05 11:02:53;;;;;;;5.35;2.38;;;;;;;26.18;38.81;101586.09;5037174;28;20378;-80
2023/06/05 11:05:19;;;;;;;3.47;1.90;;;;;;;26.50;38.59;101587.00;5027219;28;20391;-80
2023/06/05 11:07:46;;;;;;;5.20;2.38;;;;;;;26.66;38.65;101590.75;5015096;28;20495;-80
2023/06/05 11:10:20;;;;;;;4.68;2.33;;;;;;;26.69;38.76;101584.00;4999559;28;20440;-77
2023/06/05 11:12:46;;;;;;;8.30;2.80;;;;;;;26.76;39.24;101583.75;5008193;28;20404;-81
2023/06/05 11:15:34;;;;;;;6.45;2.40;;;;;;;26.72;38.92;101582.63;4999822;28;20414;-78
2023/06/05 11:18:28;;;;;;;7.25;2.70;;;;;;;26.43;39.11;101580.13;5002651;28;20418;-81
2023/06/05 11:20:55;;;;;;;8.45;3.05;;;;;;;26.28;39.66;101570.75;4979847;28;20480;-81
2023/06/05 11:23:21;;;;;;;6.88;2.78;;;;;;;26.51;39.83;101580.50;4996333;28;20402;-79
2023/06/05 11:25:48;;;;;;;8.45;3.10;;;;;;;26.69;39.50;101576.63;4998284;28;20396;-80